sensor_id;sensor_type;location;lat;lon;timestamp;temperature;humidity
4811;DHT22;2419;51.276;6.472;2022-12-18T00:00:07;-4.80;99.90
4811;DHT22;2419;51.276;6.472;2022-12-18T00:02:43;-4.70;99.90
4811;DHT22;2419;51.276;6.472;2022-12-18T00:05:11;-4.70;99.90
4811;DHT22;2419;51.276;6.472;2022-12-18T00:07:39;-4.70;99.90
4811;DHT22;2419;51.276;6.472;2022-12-18T00:10:08;-4.60;99.90
4811;DHT22;2419;51.276;6.472;2022-12-18T00:12:36;-4.50;99.90
4811;DHT22;2419;51.276;6.472;2022-12-18T00:15:06;-4.50;99.90
4811;DHT22;2419;51.276;6.472;2022-12-18T00:17:35;-4.50;99.90
4811;DHT22;2419;51.276;6.472;2022-12-18T00:20:03;-4.30;99.90
4811;DHT22;2419;51.276;6.472;2022-12-18T00:22:31;-4.30;99.90
4811;DHT22;2419;51.276;6.472;2022-12-18T00:24:59;-4.20;99.90
4811;DHT22;2419;51.276;6.472;2022-12-18T00:27:27;-4.20;99.90
4811;DHT22;2419;51.276;6.472;2022-12-18T00:29:55;-4.10;99.90
4811;DHT22;2419;51.276;6.472;2022-12-18T00:32:25;-4.10;99.90
4811;DHT22;2419;51.276;6.472;2022-12-18T00:34:53;-4.10;99.90
4811;DHT22;2419;51.276;6.472;2022-12-18T00:37:21;-4.00;99.90
4811;DHT22;2419;51.276;6.472;2022-12-18T00:39:50;-4.10;99.90
4811;DHT22;2419;51.276;6.472;2022-12-18T00:42:19;-4.10;99.90
4811;DHT22;2419;51.276;6.472;2022-12-18T00:45:05;-4.00;99.90
4811;DHT22;2419;51.276;6.472;2022-12-18T00:47:40;-4.00;99.90
4811;DHT22;2419;51.276;6.472;2022-12-18T00:50:09;-4.00;99.90
4811;DHT22;2419;51.276;6.472;2022-12-18T00:52:37;-4.10;99.90
4811;DHT22;2419;51.276;6.472;2022-12-18T00:55:06;-4.10;99.90
4811;DHT22;2419;51.276;6.472;2022-12-18T00:57:34;-4.10;99.90
4811;DHT22;2419;51.276;6.472;2022-12-18T01:00:04;-4.10;99.90
4811;DHT22;2419;51.276;6.472;2022-12-18T01:02:34;-4.10;99.90
4811;DHT22;2419;51.276;6.472;2022-12-18T01:05:04;-4.20;99.90
4811;DHT22;2419;51.276;6.472;2022-12-18T01:07:33;-4.20;99.90
4811;DHT22;2419;51.276;6.472;2022-12-18T01:10:03;-4.20;99.90
4811;DHT22;2419;51.276;6.472;2022-12-18T01:12:31;-4.10;99.90
4811;DHT22;2419;51.276;6.472;2022-12-18T01:14:59;-4.10;99.90
4811;DHT22;2419;51.276;6.472;2022-12-18T01:17:28;-4.10;99.90
4811;DHT22;2419;51.276;6.472;2022-12-18T01:19:56;-4.20;99.90
4811;DHT22;2419;51.276;6.472;2022-12-18T01:22:26;-4.20;99.90
4811;DHT22;2419;51.276;6.472;2022-12-18T01:24:54;-4.20;99.90
4811;DHT22;2419;51.276;6.472;2022-12-18T01:27:22;-4.20;99.90
4811;DHT22;2419;51.276;6.472;2022-12-18T01:29:51;-4.10;99.90
4811;DHT22;2419;51.276;6.472;2022-12-18T01:32:19;-4.20;99.90
4811;DHT22;2419;51.276;6.472;2022-12-18T01:34:49;-4.20;99.90
4811;DHT22;2419;51.276;6.472;2022-12-18T01:37:18;-4.20;99.90
4811;DHT22;2419;51.276;6.472;2022-12-18T01:39:47;-4.20;99.90
4811;DHT22;2419;51.276;6.472;2022-12-18T01:42:17;-4.20;99.90
4811;DHT22;2419;51.276;6.472;2022-12-18T01:44:59;-4.20;99.90
4811;DHT22;2419;51.276;6.472;2022-12-18T01:47:37;-4.20;99.90
4811;DHT22;2419;51.276;6.472;2022-12-18T01:50:09;-4.30;99.90
4811;DHT22;2419;51.276;6.472;2022-12-18T01:52:38;-4.30;99.90
4811;DHT22;2419;51.276;6.472;2022-12-18T01:55:11;-4.30;99.90
4811;DHT22;2419;51.276;6.472;2022-12-18T01:57:40;-4.20;99.90
4811;DHT22;2419;51.276;6.472;2022-12-18T02:00:13;-4.20;99.90
4811;DHT22;2419;51.276;6.472;2022-12-18T02:02:43;-4.30;99.90
4811;DHT22;2419;51.276;6.472;2022-12-18T02:05:15;-4.30;99.90
4811;DHT22;2419;51.276;6.472;2022-12-18T02:07:52;-4.30;99.90
4811;DHT22;2419;51.276;6.472;2022-12-18T02:10:29;-4.30;99.90
4811;DHT22;2419;51.276;6.472;2022-12-18T02:13:06;-4.30;99.90
4811;DHT22;2419;51.276;6.472;2022-12-18T02:15:41;-4.30;99.90
4811;DHT22;2419;51.276;6.472;2022-12-18T02:18:14;-4.20;99.90
4811;DHT22;2419;51.276;6.472;2022-12-18T02:20:52;-4.10;99.90
4811;DHT22;2419;51.276;6.472;2022-12-18T02:23:35;-4.20;99.90
4811;DHT22;2419;51.276;6.472;2022-12-18T02:26:18;-4.20;99.90
4811;DHT22;2419;51.276;6.472;2022-12-18T02:28:53;-4.10;99.90
4811;DHT22;2419;51.276;6.472;2022-12-18T02:31:25;-4.20;99.90
4811;DHT22;2419;51.276;6.472;2022-12-18T02:33:56;-4.10;99.90
4811;DHT22;2419;51.276;6.472;2022-12-18T02:36:27;-4.20;99.90
4811;DHT22;2419;51.276;6.472;2022-12-18T02:38:57;-4.30;99.90
4811;DHT22;2419;51.276;6.472;2022-12-18T02:41:28;-4.20;99.90
4811;DHT22;2419;51.276;6.472;2022-12-18T02:43:59;-4.20;99.90
4811;DHT22;2419;51.276;6.472;2022-12-18T02:46:33;-4.30;99.90
4811;DHT22;2419;51.276;6.472;2022-12-18T02:49:16;-4.20;99.90
4811;DHT22;2419;51.276;6.472;2022-12-18T02:51:52;-4.10;99.90
4811;DHT22;2419;51.276;6.472;2022-12-18T02:54:40;-4.10;99.90
4811;DHT22;2419;51.276;6.472;2022-12-18T02:57:16;-4.10;99.90
4811;DHT22;2419;51.276;6.472;2022-12-18T02:59:55;-4.00;99.90
4811;DHT22;2419;51.276;6.472;2022-12-18T03:02:29;-3.90;99.90
4811;DHT22;2419;51.276;6.472;2022-12-18T03:05:04;-3.90;99.90
4811;DHT22;2419;51.276;6.472;2022-12-18T03:07:38;-3.90;99.90
4811;DHT22;2419;51.276;6.472;2022-12-18T03:10:14;-4.00;99.90
4811;DHT22;2419;51.276;6.472;2022-12-18T03:12:49;-4.10;99.90
4811;DHT22;2419;51.276;6.472;2022-12-18T03:15:24;-4.00;99.90
4811;DHT22;2419;51.276;6.472;2022-12-18T03:18:04;-3.90;99.90
4811;DHT22;2419;51.276;6.472;2022-12-18T03:20:36;-3.90;99.90
4811;DHT22;2419;51.276;6.472;2022-12-18T03:23:09;-4.00;99.90
4811;DHT22;2419;51.276;6.472;2022-12-18T03:25:47;-3.90;99.90
4811;DHT22;2419;51.276;6.472;2022-12-18T03:28:20;-4.00;99.90
4811;DHT22;2419;51.276;6.472;2022-12-18T03:30:57;-3.90;99.90
4811;DHT22;2419;51.276;6.472;2022-12-18T03:33:31;-3.90;99.90
4811;DHT22;2419;51.276;6.472;2022-12-18T03:36:03;-3.90;99.90
4811;DHT22;2419;51.276;6.472;2022-12-18T03:38:32;-3.80;99.90
4811;DHT22;2419;51.276;6.472;2022-12-18T03:41:05;-3.90;99.90
4811;DHT22;2419;51.276;6.472;2022-12-18T03:43:54;-3.80;99.90
4811;DHT22;2419;51.276;6.472;2022-12-18T03:46:29;-3.90;99.90
4811;DHT22;2419;51.276;6.472;2022-12-18T03:49:05;-3.80;99.90
4811;DHT22;2419;51.276;6.472;2022-12-18T03:51:40;-3.80;99.90
4811;DHT22;2419;51.276;6.472;2022-12-18T03:54:11;-3.80;99.90
4811;DHT22;2419;51.276;6.472;2022-12-18T03:56:53;-3.80;99.90
4811;DHT22;2419;51.276;6.472;2022-12-18T03:59:26;-3.90;99.90
4811;DHT22;2419;51.276;6.472;2022-12-18T04:01:57;-3.80;99.90
4811;DHT22;2419;51.276;6.472;2022-12-18T04:04:27;-3.80;99.90
4811;DHT22;2419;51.276;6.472;2022-12-18T04:06:59;-3.70;99.90
4811;DHT22;2419;51.276;6.472;2022-12-18T04:09:30;-3.70;99.90
4811;DHT22;2419;51.276;6.472;2022-12-18T04:11:59;-3.70;99.90
4811;DHT22;2419;51.276;6.472;2022-12-18T04:14:30;-3.60;99.90
4811;DHT22;2419;51.276;6.472;2022-12-18T04:17:03;-3.60;99.90
4811;DHT22;2419;51.276;6.472;2022-12-18T04:19:32;-3.60;99.90
4811;DHT22;2419;51.276;6.472;2022-12-18T04:22:02;-3.70;99.90
4811;DHT22;2419;51.276;6.472;2022-12-18T04:24:38;-3.70;99.90
4811;DHT22;2419;51.276;6.472;2022-12-18T04:27:13;-3.70;99.90
4811;DHT22;2419;51.276;6.472;2022-12-18T04:29:48;-3.70;99.90
4811;DHT22;2419;51.276;6.472;2022-12-18T04:32:17;-3.70;99.90
4811;DHT22;2419;51.276;6.472;2022-12-18T04:34:47;-3.60;99.90
4811;DHT22;2419;51.276;6.472;2022-12-18T04:37:16;-3.60;99.90
4811;DHT22;2419;51.276;6.472;2022-12-18T04:39:45;-3.70;99.90
4811;DHT22;2419;51.276;6.472;2022-12-18T04:42:21;-3.70;99.90
4811;DHT22;2419;51.276;6.472;2022-12-18T04:44:50;-3.70;99.90
4811;DHT22;2419;51.276;6.472;2022-12-18T04:47:18;-3.70;99.90
4811;DHT22;2419;51.276;6.472;2022-12-18T04:49:46;-3.70;99.90
4811;DHT22;2419;51.276;6.472;2022-12-18T04:52:14;-3.80;99.90
4811;DHT22;2419;51.276;6.472;2022-12-18T04:54:42;-3.70;99.90
4811;DHT22;2419;51.276;6.472;2022-12-18T04:57:10;-3.70;99.90
4811;DHT22;2419;51.276;6.472;2022-12-18T04:59:39;-3.70;99.90
4811;DHT22;2419;51.276;6.472;2022-12-18T05:02:09;-3.80;99.90
4811;DHT22;2419;51.276;6.472;2022-12-18T05:04:37;-3.80;99.90
4811;DHT22;2419;51.276;6.472;2022-12-18T05:07:05;-3.80;99.90
4811;DHT22;2419;51.276;6.472;2022-12-18T05:09:33;-3.80;99.90
4811;DHT22;2419;51.276;6.472;2022-12-18T05:12:01;-3.70;99.90
4811;DHT22;2419;51.276;6.472;2022-12-18T05:14:29;-3.70;99.90
4811;DHT22;2419;51.276;6.472;2022-12-18T05:16:57;-3.80;99.90
4811;DHT22;2419;51.276;6.472;2022-12-18T05:19:28;-3.80;99.90
4811;DHT22;2419;51.276;6.472;2022-12-18T05:21:56;-3.80;99.90
4811;DHT22;2419;51.276;6.472;2022-12-18T05:24:24;-3.70;99.90
4811;DHT22;2419;51.276;6.472;2022-12-18T05:26:52;-3.80;99.90
4811;DHT22;2419;51.276;6.472;2022-12-18T05:29:20;-3.80;99.90
4811;DHT22;2419;51.276;6.472;2022-12-18T05:31:49;-3.90;99.90
4811;DHT22;2419;51.276;6.472;2022-12-18T05:34:17;-3.80;99.90
4811;DHT22;2419;51.276;6.472;2022-12-18T05:36:46;-3.80;99.90
4811;DHT22;2419;51.276;6.472;2022-12-18T05:39:15;-3.80;99.90
4811;DHT22;2419;51.276;6.472;2022-12-18T05:41:43;-3.80;99.90
4811;DHT22;2419;51.276;6.472;2022-12-18T05:44:11;-3.80;99.90
4811;DHT22;2419;51.276;6.472;2022-12-18T05:46:39;-3.70;99.90
4811;DHT22;2419;51.276;6.472;2022-12-18T05:49:07;-3.70;99.90
4811;DHT22;2419;51.276;6.472;2022-12-18T05:51:36;-3.60;99.90
4811;DHT22;2419;51.276;6.472;2022-12-18T05:54:06;-3.60;99.90
4811;DHT22;2419;51.276;6.472;2022-12-18T05:56:34;-3.60;99.90
4811;DHT22;2419;51.276;6.472;2022-12-18T05:59:02;-3.60;99.90
4811;DHT22;2419;51.276;6.472;2022-12-18T06:01:30;-3.60;99.90
4811;DHT22;2419;51.276;6.472;2022-12-18T06:04:14;-3.60;99.90
4811;DHT22;2419;51.276;6.472;2022-12-18T06:06:42;-3.70;99.90
4811;DHT22;2419;51.276;6.472;2022-12-18T06:09:12;-3.60;99.90
4811;DHT22;2419;51.276;6.472;2022-12-18T06:11:40;-3.60;99.90
4811;DHT22;2419;51.276;6.472;2022-12-18T06:14:09;-3.70;99.90
4811;DHT22;2419;51.276;6.472;2022-12-18T06:16:37;-3.70;99.90
4811;DHT22;2419;51.276;6.472;2022-12-18T06:19:05;-3.70;99.90
4811;DHT22;2419;51.276;6.472;2022-12-18T06:21:34;-3.70;99.90
4811;DHT22;2419;51.276;6.472;2022-12-18T06:24:02;-3.80;99.90
4811;DHT22;2419;51.276;6.472;2022-12-18T06:26:31;-3.80;99.90
4811;DHT22;2419;51.276;6.472;2022-12-18T06:28:59;-3.80;99.90
4811;DHT22;2419;51.276;6.472;2022-12-18T06:31:27;-3.70;99.90
4811;DHT22;2419;51.276;6.472;2022-12-18T06:33:56;-3.70;99.90
4811;DHT22;2419;51.276;6.472;2022-12-18T06:36:24;-3.80;99.90
4811;DHT22;2419;51.276;6.472;2022-12-18T06:38:56;-3.70;99.90
4811;DHT22;2419;51.276;6.472;2022-12-18T06:41:24;-3.70;99.90
4811;DHT22;2419;51.276;6.472;2022-12-18T06:43:54;-3.60;99.90
4811;DHT22;2419;51.276;6.472;2022-12-18T06:46:25;-3.60;99.90
4811;DHT22;2419;51.276;6.472;2022-12-18T06:48:53;-3.60;99.90
4811;DHT22;2419;51.276;6.472;2022-12-18T06:51:23;-3.60;99.90
4811;DHT22;2419;51.276;6.472;2022-12-18T06:53:52;-3.60;99.90
4811;DHT22;2419;51.276;6.472;2022-12-18T06:56:20;-3.70;99.90
4811;DHT22;2419;51.276;6.472;2022-12-18T06:58:51;-3.60;99.90
4811;DHT22;2419;51.276;6.472;2022-12-18T07:01:21;-3.60;99.90
4811;DHT22;2419;51.276;6.472;2022-12-18T07:03:52;-3.60;99.90
4811;DHT22;2419;51.276;6.472;2022-12-18T07:06:22;-3.60;99.90
4811;DHT22;2419;51.276;6.472;2022-12-18T07:08:52;-3.60;99.90
4811;DHT22;2419;51.276;6.472;2022-12-18T07:11:21;-3.60;99.90
4811;DHT22;2419;51.276;6.472;2022-12-18T07:13:49;-3.40;99.90
4811;DHT22;2419;51.276;6.472;2022-12-18T07:16:20;-3.50;99.90
4811;DHT22;2419;51.276;6.472;2022-12-18T07:18:51;-3.50;99.90
4811;DHT22;2419;51.276;6.472;2022-12-18T07:21:21;-3.50;99.90
4811;DHT22;2419;51.276;6.472;2022-12-18T07:23:49;-3.40;99.90
4811;DHT22;2419;51.276;6.472;2022-12-18T07:26:19;-3.40;99.90
4811;DHT22;2419;51.276;6.472;2022-12-18T07:28:47;-3.40;99.90
4811;DHT22;2419;51.276;6.472;2022-12-18T07:31:17;-3.30;99.90
4811;DHT22;2419;51.276;6.472;2022-12-18T07:33:48;-3.30;99.90
4811;DHT22;2419;51.276;6.472;2022-12-18T07:36:18;-3.30;99.90
4811;DHT22;2419;51.276;6.472;2022-12-18T07:38:47;-3.40;99.90
4811;DHT22;2419;51.276;6.472;2022-12-18T07:41:16;-3.20;99.90
4811;DHT22;2419;51.276;6.472;2022-12-18T07:43:45;-3.30;99.90
4811;DHT22;2419;51.276;6.472;2022-12-18T07:46:14;-3.30;99.90
4811;DHT22;2419;51.276;6.472;2022-12-18T07:48:43;-3.20;99.90
4811;DHT22;2419;51.276;6.472;2022-12-18T07:51:17;-3.20;99.90
4811;DHT22;2419;51.276;6.472;2022-12-18T07:53:45;-3.00;99.90
4811;DHT22;2419;51.276;6.472;2022-12-18T07:56:18;-2.40;99.90
4811;DHT22;2419;51.276;6.472;2022-12-18T07:58:56;-2.40;99.90
4811;DHT22;2419;51.276;6.472;2022-12-18T08:01:25;-2.30;99.90
4811;DHT22;2419;51.276;6.472;2022-12-18T08:03:53;-2.30;99.90
4811;DHT22;2419;51.276;6.472;2022-12-18T08:06:23;-1.90;99.90
4811;DHT22;2419;51.276;6.472;2022-12-18T08:08:52;-1.80;99.90
4811;DHT22;2419;51.276;6.472;2022-12-18T08:11:21;-1.60;99.90
4811;DHT22;2419;51.276;6.472;2022-12-18T08:13:49;-1.50;99.90
4811;DHT22;2419;51.276;6.472;2022-12-18T08:16:18;-1.10;99.90
4811;DHT22;2419;51.276;6.472;2022-12-18T08:18:46;-1.00;99.90
4811;DHT22;2419;51.276;6.472;2022-12-18T08:21:17;-0.80;99.90
4811;DHT22;2419;51.276;6.472;2022-12-18T08:23:49;-0.90;99.90
4811;DHT22;2419;51.276;6.472;2022-12-18T08:26:18;-0.70;99.90
4811;DHT22;2419;51.276;6.472;2022-12-18T08:28:47;-0.90;99.90
4811;DHT22;2419;51.276;6.472;2022-12-18T08:31:16;-1.50;99.90
4811;DHT22;2419;51.276;6.472;2022-12-18T08:33:44;-1.70;99.90
4811;DHT22;2419;51.276;6.472;2022-12-18T08:36:12;-2.00;99.90
4811;DHT22;2419;51.276;6.472;2022-12-18T08:38:40;-2.00;99.90
4811;DHT22;2419;51.276;6.472;2022-12-18T08:41:11;-1.90;99.90
4811;DHT22;2419;51.276;6.472;2022-12-18T08:43:40;-1.70;99.90
4811;DHT22;2419;51.276;6.472;2022-12-18T08:46:27;-1.50;99.90
4811;DHT22;2419;51.276;6.472;2022-12-18T08:48:58;-1.10;99.90
4811;DHT22;2419;51.276;6.472;2022-12-18T08:51:27;-0.40;99.90
4811;DHT22;2419;51.276;6.472;2022-12-18T08:53:55;-0.30;99.90
4811;DHT22;2419;51.276;6.472;2022-12-18T08:56:24;-0.50;99.90
4811;DHT22;2419;51.276;6.472;2022-12-18T08:58:52;-0.60;99.90
4811;DHT22;2419;51.276;6.472;2022-12-18T09:01:21;-0.30;99.90
4811;DHT22;2419;51.276;6.472;2022-12-18T09:03:50;-0.80;99.90
4811;DHT22;2419;51.276;6.472;2022-12-18T09:06:20;-0.90;99.90
4811;DHT22;2419;51.276;6.472;2022-12-18T09:08:49;-1.00;99.90
4811;DHT22;2419;51.276;6.472;2022-12-18T09:11:20;-1.10;99.90
4811;DHT22;2419;51.276;6.472;2022-12-18T09:13:51;-1.10;99.90
4811;DHT22;2419;51.276;6.472;2022-12-18T09:16:20;-1.10;99.90
4811;DHT22;2419;51.276;6.472;2022-12-18T09:18:57;-1.00;99.90
4811;DHT22;2419;51.276;6.472;2022-12-18T09:21:28;-0.80;99.90
4811;DHT22;2419;51.276;6.472;2022-12-18T09:23:58;-0.50;99.90
4811;DHT22;2419;51.276;6.472;2022-12-18T09:26:26;-0.30;99.90
4811;DHT22;2419;51.276;6.472;2022-12-18T09:28:56;-0.30;99.90
4811;DHT22;2419;51.276;6.472;2022-12-18T09:31:24;0.00;99.90
4811;DHT22;2419;51.276;6.472;2022-12-18T09:33:54;0.00;99.90
4811;DHT22;2419;51.276;6.472;2022-12-18T09:36:22;-0.10;99.90
4811;DHT22;2419;51.276;6.472;2022-12-18T09:38:51;-0.30;99.90
4811;DHT22;2419;51.276;6.472;2022-12-18T09:41:32;-0.40;99.90
4811;DHT22;2419;51.276;6.472;2022-12-18T09:44:09;-0.30;99.90
4811;DHT22;2419;51.276;6.472;2022-12-18T09:46:42;-0.30;99.90
4811;DHT22;2419;51.276;6.472;2022-12-18T09:49:15;-0.40;99.90
4811;DHT22;2419;51.276;6.472;2022-12-18T09:51:46;-0.60;99.90
4811;DHT22;2419;51.276;6.472;2022-12-18T09:54:20;-0.60;99.90
4811;DHT22;2419;51.276;6.472;2022-12-18T09:56:48;-0.70;99.90
4811;DHT22;2419;51.276;6.472;2022-12-18T09:59:23;-0.60;99.90
4811;DHT22;2419;51.276;6.472;2022-12-18T10:01:51;-0.50;99.90
4811;DHT22;2419;51.276;6.472;2022-12-18T10:04:19;-0.50;99.90
4811;DHT22;2419;51.276;6.472;2022-12-18T10:06:53;-0.50;99.90
4811;DHT22;2419;51.276;6.472;2022-12-18T10:09:28;-0.50;99.90
4811;DHT22;2419;51.276;6.472;2022-12-18T10:12:05;-0.50;99.90
4811;DHT22;2419;51.276;6.472;2022-12-18T10:14:41;-0.40;99.90
4811;DHT22;2419;51.276;6.472;2022-12-18T10:17:20;-0.30;99.90
4811;DHT22;2419;51.276;6.472;2022-12-18T10:19:56;-0.30;99.90
4811;DHT22;2419;51.276;6.472;2022-12-18T10:22:36;-0.20;99.90
4811;DHT22;2419;51.276;6.472;2022-12-18T10:25:17;-0.10;99.90
4811;DHT22;2419;51.276;6.472;2022-12-18T10:27:46;0.00;99.90
4811;DHT22;2419;51.276;6.472;2022-12-18T10:30:18;0.10;99.90
4811;DHT22;2419;51.276;6.472;2022-12-18T10:32:46;0.20;99.90
4811;DHT22;2419;51.276;6.472;2022-12-18T10:35:18;0.20;99.90
4811;DHT22;2419;51.276;6.472;2022-12-18T10:38:04;0.20;99.90
4811;DHT22;2419;51.276;6.472;2022-12-18T10:40:32;-0.10;99.90
4811;DHT22;2419;51.276;6.472;2022-12-18T10:43:05;0.00;99.90
4811;DHT22;2419;51.276;6.472;2022-12-18T10:45:39;0.00;99.90
4811;DHT22;2419;51.276;6.472;2022-12-18T10:48:18;-0.10;99.90
4811;DHT22;2419;51.276;6.472;2022-12-18T10:50:48;-0.10;99.90
4811;DHT22;2419;51.276;6.472;2022-12-18T10:53:37;-0.10;99.90
4811;DHT22;2419;51.276;6.472;2022-12-18T10:56:08;0.10;99.90
4811;DHT22;2419;51.276;6.472;2022-12-18T10:58:38;0.20;99.90
4811;DHT22;2419;51.276;6.472;2022-12-18T11:01:10;0.20;99.90
4811;DHT22;2419;51.276;6.472;2022-12-18T11:03:40;0.20;99.90
4811;DHT22;2419;51.276;6.472;2022-12-18T11:06:10;0.20;99.90
4811;DHT22;2419;51.276;6.472;2022-12-18T11:08:39;0.10;99.90
4811;DHT22;2419;51.276;6.472;2022-12-18T11:11:18;0.20;99.90
4811;DHT22;2419;51.276;6.472;2022-12-18T11:13:53;0.40;99.90
4811;DHT22;2419;51.276;6.472;2022-12-18T11:16:24;0.30;99.90
4811;DHT22;2419;51.276;6.472;2022-12-18T11:18:52;0.20;99.90
4811;DHT22;2419;51.276;6.472;2022-12-18T11:21:21;0.20;99.90
4811;DHT22;2419;51.276;6.472;2022-12-18T11:23:50;0.20;99.90
4811;DHT22;2419;51.276;6.472;2022-12-18T11:26:19;0.10;99.90
4811;DHT22;2419;51.276;6.472;2022-12-18T11:28:51;0.10;99.90
4811;DHT22;2419;51.276;6.472;2022-12-18T11:31:24;0.10;99.90
4811;DHT22;2419;51.276;6.472;2022-12-18T11:34:01;0.10;99.90
4811;DHT22;2419;51.276;6.472;2022-12-18T11:36:50;0.10;99.90
4811;DHT22;2419;51.276;6.472;2022-12-18T11:39:23;-0.10;99.90
4811;DHT22;2419;51.276;6.472;2022-12-18T11:41:57;-0.20;99.90
4811;DHT22;2419;51.276;6.472;2022-12-18T11:44:44;-0.20;99.90
4811;DHT22;2419;51.276;6.472;2022-12-18T11:47:21;-0.20;99.90
4811;DHT22;2419;51.276;6.472;2022-12-18T11:49:53;-0.20;99.90
4811;DHT22;2419;51.276;6.472;2022-12-18T11:52:26;-0.20;99.90
4811;DHT22;2419;51.276;6.472;2022-12-18T11:54:58;-0.10;99.90
4811;DHT22;2419;51.276;6.472;2022-12-18T11:57:34;-0.10;99.90
4811;DHT22;2419;51.276;6.472;2022-12-18T12:00:09;-0.10;99.90
4811;DHT22;2419;51.276;6.472;2022-12-18T12:03:02;-0.10;99.90
4811;DHT22;2419;51.276;6.472;2022-12-18T12:05:44;-0.10;99.90
4811;DHT22;2419;51.276;6.472;2022-12-18T12:08:18;-0.10;99.90
4811;DHT22;2419;51.276;6.472;2022-12-18T12:10:54;-0.10;99.90
4811;DHT22;2419;51.276;6.472;2022-12-18T12:13:38;0.00;99.90
4811;DHT22;2419;51.276;6.472;2022-12-18T12:16:15;0.00;99.90
4811;DHT22;2419;51.276;6.472;2022-12-18T12:18:56;0.00;99.90
4811;DHT22;2419;51.276;6.472;2022-12-18T12:21:35;0.00;99.90
4811;DHT22;2419;51.276;6.472;2022-12-18T12:24:17;0.00;99.90
4811;DHT22;2419;51.276;6.472;2022-12-18T12:26:54;0.00;99.90
4811;DHT22;2419;51.276;6.472;2022-12-18T12:29:36;0.00;99.90
4811;DHT22;2419;51.276;6.472;2022-12-18T12:32:15;0.00;99.90
4811;DHT22;2419;51.276;6.472;2022-12-18T12:34:54;0.00;99.90
4811;DHT22;2419;51.276;6.472;2022-12-18T12:37:36;0.00;99.90
4811;DHT22;2419;51.276;6.472;2022-12-18T12:40:07;0.00;99.90
4811;DHT22;2419;51.276;6.472;2022-12-18T12:42:58;0.00;99.90
4811;DHT22;2419;51.276;6.472;2022-12-18T12:45:44;0.00;99.90
4811;DHT22;2419;51.276;6.472;2022-12-18T12:48:20;0.00;99.90
4811;DHT22;2419;51.276;6.472;2022-12-18T12:50:52;0.00;99.90
4811;DHT22;2419;51.276;6.472;2022-12-18T12:53:25;0.00;99.90
4811;DHT22;2419;51.276;6.472;2022-12-18T12:55:55;0.00;99.90
4811;DHT22;2419;51.276;6.472;2022-12-18T12:58:30;0.00;99.90
4811;DHT22;2419;51.276;6.472;2022-12-18T13:01:09;0.00;99.90
4811;DHT22;2419;51.276;6.472;2022-12-18T13:03:45;0.00;99.90
4811;DHT22;2419;51.276;6.472;2022-12-18T13:06:27;0.10;99.90
4811;DHT22;2419;51.276;6.472;2022-12-18T13:08:58;0.00;99.90
4811;DHT22;2419;51.276;6.472;2022-12-18T13:11:36;0.00;99.90
4811;DHT22;2419;51.276;6.472;2022-12-18T13:14:44;0.00;99.90
4811;DHT22;2419;51.276;6.472;2022-12-18T13:17:28;0.00;99.90
4811;DHT22;2419;51.276;6.472;2022-12-18T13:20:07;0.00;99.90
4811;DHT22;2419;51.276;6.472;2022-12-18T13:22:39;0.00;99.90
4811;DHT22;2419;51.276;6.472;2022-12-18T13:25:32;0.00;99.90
4811;DHT22;2419;51.276;6.472;2022-12-18T13:28:06;0.00;99.90
4811;DHT22;2419;51.276;6.472;2022-12-18T13:30:56;0.00;99.90
4811;DHT22;2419;51.276;6.472;2022-12-18T13:33:38;0.00;99.90
4811;DHT22;2419;51.276;6.472;2022-12-18T13:36:30;0.00;99.90
4811;DHT22;2419;51.276;6.472;2022-12-18T13:42:38;0.00;99.90
4811;DHT22;2419;51.276;6.472;2022-12-18T13:45:45;0.00;99.90
4811;DHT22;2419;51.276;6.472;2022-12-18T13:48:19;0.00;99.90
4811;DHT22;2419;51.276;6.472;2022-12-18T13:50:49;0.00;99.90
4811;DHT22;2419;51.276;6.472;2022-12-18T13:53:23;0.00;99.90
4811;DHT22;2419;51.276;6.472;2022-12-18T13:55:54;0.00;99.90
4811;DHT22;2419;51.276;6.472;2022-12-18T13:58:22;0.00;99.90
4811;DHT22;2419;51.276;6.472;2022-12-18T14:00:50;0.00;99.90
4811;DHT22;2419;51.276;6.472;2022-12-18T14:03:22;-0.10;99.90
4811;DHT22;2419;51.276;6.472;2022-12-18T14:05:56;-0.10;99.90
4811;DHT22;2419;51.276;6.472;2022-12-18T14:08:29;-0.10;99.90
4811;DHT22;2419;51.276;6.472;2022-12-18T14:11:01;-0.10;99.90
4811;DHT22;2419;51.276;6.472;2022-12-18T14:13:33;-0.20;99.90
4811;DHT22;2419;51.276;6.472;2022-12-18T14:16:04;-0.20;99.90
4811;DHT22;2419;51.276;6.472;2022-12-18T14:18:41;-0.20;99.90
4811;DHT22;2419;51.276;6.472;2022-12-18T14:21:18;-0.30;99.90
4811;DHT22;2419;51.276;6.472;2022-12-18T14:23:48;-0.30;99.90
4811;DHT22;2419;51.276;6.472;2022-12-18T14:26:28;-0.30;99.90
4811;DHT22;2419;51.276;6.472;2022-12-18T14:28:59;-0.30;99.90
4811;DHT22;2419;51.276;6.472;2022-12-18T14:31:29;-0.30;99.90
4811;DHT22;2419;51.276;6.472;2022-12-18T14:33:58;-0.30;99.90
4811;DHT22;2419;51.276;6.472;2022-12-18T14:36:27;-0.30;99.90
4811;DHT22;2419;51.276;6.472;2022-12-18T14:38:58;-0.30;99.90
4811;DHT22;2419;51.276;6.472;2022-12-18T14:41:27;-0.30;99.90
4811;DHT22;2419;51.276;6.472;2022-12-18T14:44:05;-0.30;99.90
4811;DHT22;2419;51.276;6.472;2022-12-18T14:46:35;-0.30;99.90
4811;DHT22;2419;51.276;6.472;2022-12-18T14:49:16;-0.30;99.90
4811;DHT22;2419;51.276;6.472;2022-12-18T14:51:48;-0.30;99.90
4811;DHT22;2419;51.276;6.472;2022-12-18T14:54:18;-0.30;99.90
4811;DHT22;2419;51.276;6.472;2022-12-18T14:56:50;-0.30;99.90
4811;DHT22;2419;51.276;6.472;2022-12-18T14:59:23;-0.30;99.90
4811;DHT22;2419;51.276;6.472;2022-12-18T15:01:59;-0.30;99.90
4811;DHT22;2419;51.276;6.472;2022-12-18T15:04:32;-0.30;99.90
4811;DHT22;2419;51.276;6.472;2022-12-18T15:07:06;-0.30;99.90
4811;DHT22;2419;51.276;6.472;2022-12-18T15:09:34;-0.40;99.90
4811;DHT22;2419;51.276;6.472;2022-12-18T15:12:25;-0.40;99.90
4811;DHT22;2419;51.276;6.472;2022-12-18T15:14:54;-0.40;99.90
4811;DHT22;2419;51.276;6.472;2022-12-18T15:17:23;-0.40;99.90
4811;DHT22;2419;51.276;6.472;2022-12-18T15:19:58;-0.50;99.90
4811;DHT22;2419;51.276;6.472;2022-12-18T15:22:27;-0.50;99.90
4811;DHT22;2419;51.276;6.472;2022-12-18T15:24:57;-0.50;99.90
4811;DHT22;2419;51.276;6.472;2022-12-18T15:27:29;-0.50;99.90
4811;DHT22;2419;51.276;6.472;2022-12-18T15:30:16;-0.60;99.90
4811;DHT22;2419;51.276;6.472;2022-12-18T15:32:45;-0.60;99.90
4811;DHT22;2419;51.276;6.472;2022-12-18T15:35:18;-0.60;99.90
4811;DHT22;2419;51.276;6.472;2022-12-18T15:37:47;-0.60;99.90
4811;DHT22;2419;51.276;6.472;2022-12-18T15:40:17;-0.60;99.90
4811;DHT22;2419;51.276;6.472;2022-12-18T15:42:47;-0.60;99.90
4811;DHT22;2419;51.276;6.472;2022-12-18T15:45:33;-0.70;99.90
4811;DHT22;2419;51.276;6.472;2022-12-18T15:48:15;-0.70;99.90
4811;DHT22;2419;51.276;6.472;2022-12-18T15:50:45;-0.70;99.90
4811;DHT22;2419;51.276;6.472;2022-12-18T15:53:13;-0.70;99.90
4811;DHT22;2419;51.276;6.472;2022-12-18T15:55:41;-0.70;99.90
4811;DHT22;2419;51.276;6.472;2022-12-18T15:58:29;-0.70;99.90
4811;DHT22;2419;51.276;6.472;2022-12-18T16:00:59;-0.70;99.90
4811;DHT22;2419;51.276;6.472;2022-12-18T16:03:28;-0.70;99.90
4811;DHT22;2419;51.276;6.472;2022-12-18T16:05:56;-0.70;99.90
4811;DHT22;2419;51.276;6.472;2022-12-18T16:08:28;-0.70;99.90
4811;DHT22;2419;51.276;6.472;2022-12-18T16:10:57;-0.70;99.90
4811;DHT22;2419;51.276;6.472;2022-12-18T16:13:25;-0.70;99.90
4811;DHT22;2419;51.276;6.472;2022-12-18T16:15:54;-0.70;99.90
4811;DHT22;2419;51.276;6.472;2022-12-18T16:18:23;-0.80;99.90
4811;DHT22;2419;51.276;6.472;2022-12-18T16:20:51;-0.80;99.90
4811;DHT22;2419;51.276;6.472;2022-12-18T16:23:19;-0.80;99.90
4811;DHT22;2419;51.276;6.472;2022-12-18T16:25:47;-0.80;99.90
4811;DHT22;2419;51.276;6.472;2022-12-18T16:28:15;-0.80;99.90
4811;DHT22;2419;51.276;6.472;2022-12-18T16:30:43;-0.80;99.90
4811;DHT22;2419;51.276;6.472;2022-12-18T16:33:12;-0.80;99.90
4811;DHT22;2419;51.276;6.472;2022-12-18T16:35:40;-0.80;99.90
4811;DHT22;2419;51.276;6.472;2022-12-18T16:38:08;-0.80;99.90
4811;DHT22;2419;51.276;6.472;2022-12-18T16:40:37;-0.80;99.90